Steuben, Ohio
Current Conditions -  °F | °C
As of 7:12 AM on Monday 24 Nov 2014 (Local Time) from KPCW Reporting Station
Broken Clouds Broken Clouds  
Wind Chill: 59°   Ceiling: 3700
Heat Index: 59°   Visibility: 10mi
Dew Point: 54°   Wind: 16mph
Humidity: 82%   Direction: 210°SSW
Pressure: 29.2"   Gusts: NA
Location:  41.2282°N, 82.706°W
Report Text: KPCW 241212Z AUTO 21014KT 10SM SCT028 BKN037 BKN048 15/12 A2920 RMK AO2
Loading
Personal Weather Stations






























Interactive Weather Map New forecast layout! Learn more

10-Day Weather Forecast

Advertisements
Track Severe Weather on mobile